Time;durP1;ratioP1;P1;durP2;ratioP2;P2;SDS_P1;SDS_P2;PMS_P1;PMS_P2;Temp;Humidity;BMP_temperature;BMP_pressure;BME280_temperature;BME280_humidity;BME280_pressure;Samples;Min_cycle;Max_cycle;Signal;HPM_P1;HPM_P2
2022/06/24 00:00:06;;;;;;;;;;;15.70;97.20;;;;;;5036802;28;20275;-74
2022/06/24 00:02:34;;;;;;;;;;;15.70;97.20;;;;;;5037637;28;19928;-74
2022/06/24 00:05:04;;;;;;;;;;;15.60;97.40;;;;;;5036802;28;19921;-74
2022/06/24 00:07:43;;;;;;;;;;;15.60;97.50;;;;;;5036449;28;19921;-74
2022/06/24 00:10:11;;;;;;;;;;;15.60;97.50;;;;;;5037280;28;19921;-74
2022/06/24 00:12:38;;;;;;;;;;;15.50;97.00;;;;;;5029290;28;19997;-74
2022/06/24 00:15:06;;;;;;;;;;;15.60;97.80;;;;;;5016470;28;19921;-74
2022/06/24 00:17:33;;;;;;;;;;;15.50;97.50;;;;;;5000336;28;19925;-74
2022/06/24 00:20:02;;;;;;;;;;;15.50;97.60;;;;;;5016513;28;19922;-74
2022/06/24 00:22:30;;;;;;;;;;;15.50;97.60;;;;;;5017389;28;19921;-73
2022/06/24 00:25:33;;;;;;;;;;;15.50;97.50;;;;;;5017269;28;20352;-74
2022/06/24 00:28:07;;;;;;;;;;;15.50;97.60;;;;;;4956270;29;19923;-73
2022/06/24 00:30:36;;;;;;;;;;;15.50;97.90;;;;;;4991760;28;19921;-74
2022/06/24 00:33:07;;;;;;;;;;;15.50;97.60;;;;;;5016029;28;19932;-74
2022/06/24 00:35:36;;;;;;;;;;;15.40;97.70;;;;;;5017091;28;19929;-74
2022/06/24 00:38:19;;;;;;;;;;;15.50;98.10;;;;;;5017130;28;19932;-74
2022/06/24 00:40:47;;;;;;;;;;;15.40;98.30;;;;;;5015866;28;19921;-74
2022/06/24 00:43:23;;;;;;;;;;;15.40;98.40;;;;;;5017045;28;19921;-74
2022/06/24 00:45:55;;;;;;;;;;;15.40;98.30;;;;;;5017255;28;19921;-74
2022/06/24 00:48:24;;;;;;;;;;;15.40;98.60;;;;;;5015872;28;20290;-74
2022/06/24 00:50:51;;;;;;;;;;;15.40;98.80;;;;;;5016697;28;19922;-74
2022/06/24 00:53:19;;;;;;;;;;;15.40;98.90;;;;;;5015414;28;19921;-74
2022/06/24 00:55:47;;;;;;;;;;;15.40;98.90;;;;;;5016551;28;19921;-74
2022/06/24 00:58:17;;;;;;;;;;;15.30;99.20;;;;;;5016645;28;20341;-74
2022/06/24 01:00:46;;;;;;;;;;;15.30;99.40;;;;;;4998726;28;19921;-74
2022/06/24 01:03:14;;;;;;;;;;;15.30;99.60;;;;;;5016861;28;19925;-74
2022/06/24 01:05:43;;;;;;;;;;;15.30;99.60;;;;;;4999474;28;19932;-74
2022/06/24 01:08:12;;;;;;;;;;;15.30;99.10;;;;;;5015356;28;19921;-74
2022/06/24 01:10:40;;;;;;;;;;;15.20;99.90;;;;;;4999337;28;19930;-74
2022/06/24 01:13:11;;;;;;;;;;;15.30;99.90;;;;;;5015190;28;20089;-74
2022/06/24 01:15:38;;;;;;;;;;;15.20;99.90;;;;;;5016279;28;19929;-74
2022/06/24 01:18:07;;;;;;;;;;;15.20;99.90;;;;;;5016244;28;19921;-74
2022/06/24 01:20:34;;;;;;;;;;;15.20;99.90;;;;;;4998162;28;19933;-74
2022/06/24 01:23:02;;;;;;;;;;;14.30;99.90;;;;;;5016172;28;19932;-74
2022/06/24 01:25:30;;;;;;;;;;;15.30;99.90;;;;;;5016351;28;20260;-74
2022/06/24 01:27:59;;;;;;;;;;;15.20;99.90;;;;;;5015097;28;19921;-74
2022/06/24 01:30:27;;;;;;;;;;;15.40;99.90;;;;;;5016439;28;19931;-74
2022/06/24 01:32:55;;;;;;;;;;;15.50;99.90;;;;;;5015165;28;19921;-74
2022/06/24 01:35:22;;;;;;;;;;;15.50;99.90;;;;;;5015931;28;20276;-74
2022/06/24 01:37:50;;;;;;;;;;;15.60;99.90;;;;;;4999631;28;20271;-74
2022/06/24 01:40:17;;;;;;;;;;;15.70;99.90;;;;;;5014846;28;19921;-74
2022/06/24 01:42:45;;;;;;;;;;;15.70;99.90;;;;;;5015819;28;19928;-75
2022/06/24 01:45:12;;;;;;;;;;;15.70;99.90;;;;;;5015796;28;19921;-75
2022/06/24 01:47:39;;;;;;;;;;;15.80;99.90;;;;;;5014676;28;19933;-74
2022/06/24 01:50:07;;;;;;;;;;;15.80;99.90;;;;;;5015982;28;20486;-74
2022/06/24 01:52:35;;;;;;;;;;;15.80;99.90;;;;;;5016281;28;19940;-74
2022/06/24 01:55:04;;;;;;;;;;;15.80;99.90;;;;;;5014736;28;19921;-74
2022/06/24 01:57:31;;;;;;;;;;;15.90;99.90;;;;;;5015759;28;20337;-74
2022/06/24 02:00:00;;;;;;;;;;;15.90;99.90;;;;;;5014483;28;19921;-74
2022/06/24 02:02:28;;;;;;;;;;;15.90;99.90;;;;;;5015453;28;19921;-74
2022/06/24 02:04:56;;;;;;;;;;;15.90;99.90;;;;;;5015503;28;19921;-74
2022/06/24 02:07:24;;;;;;;;;;;16.00;99.90;;;;;;4997166;28;20348;-74
2022/06/24 02:15:23;;;;;;;;;;;16.10;99.90;;;;;;5015905;28;19944;-74
2022/06/24 02:17:50;;;;;;;;;;;16.10;99.90;;;;;;5015708;28;19922;-74
2022/06/24 02:20:18;;;;;;;;;;;16.10;99.90;;;;;;4997222;28;19932;-74
2022/06/24 02:22:45;;;;;;;;;;;16.10;99.90;;;;;;5015497;28;19929;-74
2022/06/24 02:25:13;;;;;;;;;;;16.10;99.90;;;;;;5015267;28;20271;-74
2022/06/24 02:27:40;;;;;;;;;;;16.10;99.90;;;;;;5014166;28;20356;-75
2022/06/24 02:30:08;;;;;;;;;;;16.10;99.90;;;;;;5015170;28;19933;-74
2022/06/24 02:32:35;;;;;;;;;;;15.70;99.90;;;;;;5015232;28;19929;-75
2022/06/24 02:35:08;;;;;;;;;;;16.10;99.90;;;;;;5014238;28;19933;-74
2022/06/24 02:37:35;;;;;;;;;;;16.10;99.90;;;;;;5015316;28;19928;-74
2022/06/24 02:40:45;;;;;;;;;;;16.00;99.90;;;;;;5014014;28;19987;-74
2022/06/24 02:42:57;;;;;;;;;;;16.00;99.90;;;;;;5014935;28;20271;-74
2022/06/24 02:45:24;;;;;;;;;;;15.90;99.90;;;;;;5015045;28;19932;-74
2022/06/24 02:47:52;;;;;;;;;;;15.80;99.90;;;;;;5013847;28;19925;-74
2022/06/24 02:50:19;;;;;;;;;;;15.80;99.90;;;;;;5015459;28;20356;-75
2022/06/24 02:52:47;;;;;;;;;;;15.80;99.90;;;;;;5015166;28;19921;-74
2022/06/24 02:55:14;;;;;;;;;;;15.70;99.90;;;;;;5014786;28;19932;-74
2022/06/24 02:57:41;;;;;;;;;;;15.70;99.90;;;;;;4997890;28;19921;-74
2022/06/24 03:00:09;;;;;;;;;;;15.70;99.90;;;;;;5014052;28;19921;-74
2022/06/24 03:02:36;;;;;;;;;;;15.60;99.90;;;;;;5015092;28;19926;-74
2022/06/24 03:05:14;;;;;;;;;;;15.50;99.90;;;;;;5014899;28;19930;-74
2022/06/24 03:07:41;;;;;;;;;;;15.50;99.90;;;;;;4996608;28;19921;-74
2022/06/24 03:10:09;;;;;;;;;;;15.40;99.90;;;;;;5015149;28;20356;-74
2022/06/24 03:12:36;;;;;;;;;;;15.40;99.90;;;;;;5014739;28;20391;-74
2022/06/24 03:15:04;;;;;;;;;;;15.30;99.90;;;;;;5014390;28;20020;-74
2022/06/24 03:17:31;;;;;;;;;;;15.30;99.90;;;;;;5018486;28;19923;-74
2022/06/24 03:19:59;;;;;;;;;;;15.30;99.90;;;;;;5017340;28;19921;-74
2022/06/24 03:22:26;;;;;;;;;;;15.20;99.90;;;;;;5018409;28;19922;-74
2022/06/24 03:24:54;;;;;;;;;;;15.20;99.90;;;;;;5018505;28;19933;-74
2022/06/24 03:27:21;;;;;;;;;;;15.20;99.90;;;;;;5017231;28;20264;-74
2022/06/24 03:29:49;;;;;;;;;;;15.20;99.90;;;;;;5018474;28;19962;-74
2022/06/24 03:32:16;;;;;;;;;;;15.20;99.90;;;;;;5018931;28;20351;-74
2022/06/24 03:34:44;;;;;;;;;;;15.10;99.90;;;;;;5017108;28;19928;-74
2022/06/24 03:37:11;;;;;;;;;;;15.10;99.90;;;;;;5018594;28;19921;-74
2022/06/24 03:39:38;;;;;;;;;;;15.30;99.90;;;;;;4999848;28;20307;-74
2022/06/24 03:42:06;;;;;;;;;;;15.10;99.90;;;;;;5018266;28;19932;-74
2022/06/24 03:44:33;;;;;;;;;;;15.00;99.90;;;;;;5018159;28;20005;-74
2022/06/24 03:47:03;;;;;;;;;;;15.00;99.90;;;;;;5016917;28;19932;-74
2022/06/24 03:49:30;;;;;;;;;;;15.00;99.90;;;;;;5018023;28;19921;-73
2022/06/24 03:51:58;;;;;;;;;;;14.90;99.90;;;;;;5018362;28;20256;-74
2022/06/24 03:54:25;;;;;;;;;;;14.90;99.90;;;;;;4999799;28;20307;-74
2022/06/24 03:56:53;;;;;;;;;;;14.80;99.90;;;;;;5017926;28;19921;-74
2022/06/24 03:59:20;;;;;;;;;;;14.80;99.90;;;;;;5017794;28;19921;-75
2022/06/24 04:01:47;;;;;;;;;;;14.80;99.90;;;;;;4983251;28;19929;-74
2022/06/24 04:04:15;;;;;;;;;;;15.20;99.90;;;;;;5017970;28;19925;-74
2022/06/24 04:06:43;;;;;;;;;;;14.80;99.90;;;;;;5017055;28;19921;-74
2022/06/24 04:09:10;;;;;;;;;;;14.80;99.90;;;;;;5017708;28;19921;-73
2022/06/24 04:11:37;;;;;;;;;;;14.70;99.90;;;;;;5017606;28;19928;-74
2022/06/24 04:14:05;;;;;;;;;;;14.70;99.90;;;;;;5016296;28;19925;-74
2022/06/24 04:16:32;;;;;;;;;;;14.70;99.90;;;;;;5017421;28;19928;-74
2022/06/24 04:18:59;;;;;;;;;;;14.70;99.90;;;;;;5017508;28;20367;-75
2022/06/24 04:21:27;;;;;;;;;;;14.50;99.90;;;;;;5016336;28;19932;-74
2022/06/24 04:23:54;;;;;;;;;;;14.60;99.90;;;;;;5000412;28;20082;-74
2022/06/24 04:26:22;;;;;;;;;;;14.50;99.90;;;;;;4999137;28;19921;-74
2022/06/24 04:28:50;;;;;;;;;;;14.60;99.90;;;;;;4999676;28;20348;-74
2022/06/24 04:31:17;;;;;;;;;;;14.60;99.90;;;;;;5017093;28;20348;-74
2022/06/24 04:33:47;;;;;;;;;;;14.60;99.90;;;;;;5016208;28;20360;-74
2022/06/24 04:36:15;;;;;;;;;;;14.60;99.90;;;;;;5017113;28;19933;-74
2022/06/24 04:38:42;;;;;;;;;;;14.60;99.90;;;;;;5016936;28;19937;-74
2022/06/24 04:41:12;;;;;;;;;;;14.60;99.90;;;;;;5016034;28;19928;-74
2022/06/24 04:43:39;;;;;;;;;;;13.70;99.90;;;;;;5016927;28;19921;-74
2022/06/24 04:46:07;;;;;;;;;;;14.70;99.90;;;;;;5016768;28;19929;-75
2022/06/24 04:48:35;;;;;;;;;;;14.70;99.90;;;;;;5016666;28;20367;-74
2022/06/24 04:51:03;;;;;;;;;;;14.80;99.90;;;;;;5016858;28;19936;-74
2022/06/24 04:53:31;;;;;;;;;;;14.70;99.90;;;;;;5016244;28;19928;-74
2022/06/24 04:55:58;;;;;;;;;;;14.80;99.90;;;;;;5016649;28;20348;-75
2022/06/24 04:58:26;;;;;;;;;;;14.70;99.90;;;;;;5016458;28;20264;-76
2022/06/24 05:00:53;;;;;;;;;;;14.80;99.90;;;;;;5015442;28;19928;-76
2022/06/24 05:03:20;;;;;;;;;;;14.90;99.90;;;;;;4999349;28;19921;-75
2022/06/24 05:05:51;;;;;;;;;;;14.90;99.90;;;;;;5016311;28;19936;-76
2022/06/24 05:08:18;;;;;;;;;;;14.90;99.90;;;;;;4998175;28;19929;-75
2022/06/24 05:10:48;;;;;;;;;;;15.00;99.90;;;;;;5016329;28;20379;-75
2022/06/24 05:13:15;;;;;;;;;;;14.90;99.90;;;;;;5015234;28;19932;-75
2022/06/24 05:15:43;;;;;;;;;;;15.00;99.90;;;;;;5016477;28;19928;-77
2022/06/24 05:18:10;;;;;;;;;;;15.10;99.90;;;;;;5016159;28;19929;-76
2022/06/24 05:20:37;;;;;;;;;;;15.10;99.90;;;;;;5015167;28;19921;-75
2022/06/24 05:23:05;;;;;;;;;;;15.10;99.90;;;;;;5016214;28;19925;-76
2022/06/24 05:25:33;;;;;;;;;;;15.10;99.90;;;;;;5016174;28;19921;-75
2022/06/24 05:28:08;;;;;;;;;;;15.10;99.90;;;;;;5015238;28;19922;-75
2022/06/24 05:30:36;;;;;;;;;;;15.10;99.90;;;;;;4998734;28;19921;-75
2022/06/24 05:33:04;;;;;;;;;;;15.20;99.90;;;;;;5014932;28;19925;-75
2022/06/24 05:35:31;;;;;;;;;;;15.10;99.90;;;;;;5016324;28;19921;-75
2022/06/24 05:37:59;;;;;;;;;;;15.20;99.90;;;;;;5015888;28;19921;-75
2022/06/24 05:40:26;;;;;;;;;;;15.30;99.90;;;;;;5014326;28;19921;-75
2022/06/24 05:42:53;;;;;;;;;;;15.30;99.90;;;;;;5015999;28;19929;-75
2022/06/24 05:45:21;;;;;;;;;;;15.30;99.90;;;;;;5015903;28;19928;-75
2022/06/24 05:47:48;;;;;;;;;;;15.40;99.90;;;;;;5014921;28;19928;-75
2022/06/24 05:50:15;;;;;;;;;;;15.40;99.90;;;;;;5015751;28;20261;-75
2022/06/24 05:55:40;;;;;;;;;;;15.50;99.90;;;;;;4980094;28;20349;-76
2022/06/24 05:58:07;;;;;;;;;;;15.50;99.90;;;;;;5015648;28;19921;-75
2022/06/24 06:00:35;;;;;;;;;;;16.40;99.90;;;;;;5014608;28;19928;-76
2022/06/24 06:03:03;;;;;;;;;;;15.70;99.90;;;;;;5015658;28;20280;-75
2022/06/24 06:05:30;;;;;;;;;;;15.80;99.90;;;;;;5015624;28;19928;-75
2022/06/24 06:07:57;;;;;;;;;;;15.80;99.90;;;;;;5014477;28;19922;-75
2022/06/24 06:10:25;;;;;;;;;;;15.80;99.90;;;;;;5015380;28;19932;-75
2022/06/24 06:12:54;;;;;;;;;;;15.90;99.90;;;;;;5014316;28;19929;-76
2022/06/24 06:15:22;;;;;;;;;;;16.20;99.90;;;;;;4998259;28;20367;-76
2022/06/24 06:17:49;;;;;;;;;;;16.10;99.90;;;;;;5015449;28;19921;-75
2022/06/24 06:20:16;;;;;;;;;;;16.20;99.90;;;;;;5014250;28;19944;-75
2022/06/24 06:22:44;;;;;;;;;;;16.20;99.90;;;;;;4982022;28;19921;-75
2022/06/24 06:25:14;;;;;;;;;;;16.30;99.90;;;;;;5015247;28;19929;-76
2022/06/24 06:27:42;;;;;;;;;;;16.40;99.90;;;;;;4997497;28;19921;-75
2022/06/24 06:30:09;;;;;;;;;;;16.40;99.90;;;;;;5015292;28;19921;-75
2022/06/24 06:32:37;;;;;;;;;;;16.50;99.90;;;;;;5015324;28;20348;-75
2022/06/24 06:35:05;;;;;;;;;;;16.50;99.90;;;;;;5013959;28;19922;-75
2022/06/24 06:37:32;;;;;;;;;;;16.60;99.90;;;;;;5014533;28;20408;-74
2022/06/24 06:40:00;;;;;;;;;;;16.50;99.90;;;;;;5013846;28;19921;-73
2022/06/24 06:42:28;;;;;;;;;;;16.60;99.90;;;;;;5014882;28;19929;-74
2022/06/24 06:44:56;;;;;;;;;;;16.60;99.90;;;;;;5014738;28;19932;-74
2022/06/24 06:47:24;;;;;;;;;;;16.70;99.90;;;;;;4996456;28;19921;-74
2022/06/24 06:49:51;;;;;;;;;;;16.80;99.90;;;;;;5014939;28;19921;-74
2022/06/24 06:52:19;;;;;;;;;;;16.90;99.90;;;;;;5019887;28;19921;-73
2022/06/24 06:54:47;;;;;;;;;;;17.00;99.90;;;;;;5017646;28;20386;-73
2022/06/24 06:57:14;;;;;;;;;;;17.10;99.60;;;;;;5018813;28;19932;-73
2022/06/24 06:59:41;;;;;;;;;;;17.20;99.40;;;;;;5017632;28;20356;-74
2022/06/24 07:02:09;;;;;;;;;;;17.30;99.50;;;;;;5018657;28;19929;-73
2022/06/24 07:04:36;;;;;;;;;;;17.40;99.20;;;;;;5001256;28;19929;-74
2022/06/24 07:07:04;;;;;;;;;;;17.40;98.50;;;;;;5000114;28;19935;-72
2022/06/24 07:09:31;;;;;;;;;;;17.50;98.10;;;;;;5018534;28;19929;-75
2022/06/24 07:11:58;;;;;;;;;;;17.50;98.60;;;;;;5016959;28;19921;-75
2022/06/24 07:14:26;;;;;;;;;;;17.50;97.80;;;;;;5029677;28;19948;-75
2022/06/24 07:16:54;;;;;;;;;;;17.60;97.80;;;;;;5018036;28;19920;-75
2022/06/24 07:19:21;;;;;;;;;;;17.60;97.80;;;;;;5037604;28;19921;-75
2022/06/24 07:21:49;;;;;;;;;;;17.60;97.60;;;;;;5036977;28;19948;-75
2022/06/24 07:24:16;;;;;;;;;;;17.60;97.50;;;;;;5038513;28;19932;-75
2022/06/24 07:26:47;;;;;;;;;;;17.60;97.50;;;;;;5037831;28;20359;-75
2022/06/24 07:29:14;;;;;;;;;;;17.60;97.90;;;;;;5038741;28;20332;-75
2022/06/24 07:31:42;;;;;;;;;;;17.40;97.40;;;;;;5038182;28;19928;-75
2022/06/24 07:34:10;;;;;;;;;;;17.60;97.30;;;;;;5037420;28;19943;-75
2022/06/24 07:36:37;;;;;;;;;;;17.50;97.20;;;;;;5038155;28;19921;-75
2022/06/24 07:39:05;;;;;;;;;;;17.60;97.40;;;;;;5004542;28;19920;-75
2022/06/24 07:41:32;;;;;;;;;;;17.60;96.90;;;;;;5037083;28;19944;-75
2022/06/24 07:43:59;;;;;;;;;;;17.60;97.20;;;;;;5020697;28;19921;-75
2022/06/24 07:46:27;;;;;;;;;;;17.70;97.30;;;;;;5036752;28;20340;-75
2022/06/24 07:48:55;;;;;;;;;;;17.70;97.00;;;;;;5037871;28;19928;-75
2022/06/24 07:51:27;;;;;;;;;;;17.70;96.60;;;;;;5038026;28;19932;-76
2022/06/24 07:53:55;;;;;;;;;;;17.90;96.00;;;;;;5036670;28;20348;-75
2022/06/24 07:59:08;;;;;;;;;;;18.00;95.80;;;;;;5020819;28;19921;-75
2022/06/24 08:01:36;;;;;;;;;;;18.00;95.80;;;;;;5035620;28;19928;-75
2022/06/24 08:04:09;;;;;;;;;;;18.00;96.20;;;;;;5037798;28;19925;-75
2022/06/24 08:06:38;;;;;;;;;;;18.10;96.20;;;;;;5036513;28;19925;-75
2022/06/24 08:09:07;;;;;;;;;;;18.10;96.50;;;;;;5037334;28;19921;-75
2022/06/24 08:11:36;;;;;;;;;;;18.20;95.80;;;;;;5038081;28;19928;-75
2022/06/24 08:14:03;;;;;;;;;;;18.30;95.80;;;;;;5035912;28;19932;-76
2022/06/24 08:16:31;;;;;;;;;;;18.30;95.70;;;;;;5018974;28;20255;-75
2022/06/24 08:18:58;;;;;;;;;;;18.40;95.50;;;;;;5037902;28;19921;-75
2022/06/24 08:21:25;;;;;;;;;;;18.40;95.40;;;;;;5018742;28;19921;-75
2022/06/24 08:23:53;;;;;;;;;;;18.50;95.40;;;;;;5037369;28;19921;-75
2022/06/24 08:26:20;;;;;;;;;;;18.60;95.20;;;;;;5018817;28;20024;-75
2022/06/24 08:28:47;;;;;;;;;;;18.60;95.00;;;;;;5037445;28;19928;-76
2022/06/24 08:31:17;;;;;;;;;;;18.70;95.50;;;;;;5019688;28;19921;-75
2022/06/24 08:33:45;;;;;;;;;;;18.00;95.20;;;;;;5018529;28;19932;-76
2022/06/24 08:36:12;;;;;;;;;;;18.70;95.60;;;;;;5019587;28;19921;-75
2022/06/24 08:38:40;;;;;;;;;;;19.10;95.10;;;;;;5003677;28;19921;-76
2022/06/24 08:41:07;;;;;;;;;;;18.80;95.60;;;;;;5035840;28;19925;-75
2022/06/24 08:43:35;;;;;;;;;;;19.00;95.10;;;;;;5037040;28;20362;-76
2022/06/24 08:46:03;;;;;;;;;;;19.20;94.40;;;;;;5036738;28;19921;-76
2022/06/24 08:48:37;;;;;;;;;;;19.30;94.60;;;;;;5019216;28;19932;-76
2022/06/24 08:51:05;;;;;;;;;;;19.40;94.30;;;;;;5036645;28;19921;-77
2022/06/24 08:53:33;;;;;;;;;;;21.60;94.40;;;;;;5018575;28;19928;-76
2022/06/24 08:56:01;;;;;;;;;;;19.50;93.40;;;;;;5036894;28;19928;-76
2022/06/24 08:58:29;;;;;;;;;;;19.50;93.20;;;;;;5019537;28;19921;-76
2022/06/24 09:00:57;;;;;;;;;;;19.60;93.90;;;;;;5018022;28;19936;-75
2022/06/24 09:03:24;;;;;;;;;;;19.80;93.70;;;;;;5037161;28;19921;-75
2022/06/24 09:05:52;;;;;;;;;;;20.00;93.60;;;;;;5019167;28;19940;-75
2022/06/24 09:08:19;;;;;;;;;;;20.20;93.00;;;;;;5035468;28;19920;-75
2022/06/24 09:13:41;;;;;;;;;;;20.60;92.10;;;;;;5034871;28;19920;-76
2022/06/24 09:16:09;;;;;;;;;;;20.80;91.80;;;;;;5003332;28;19921;-75
2022/06/24 09:18:38;;;;;;;;;;;21.00;91.30;;;;;;5036676;28;19931;-76
2022/06/24 09:21:06;;;;;;;;;;;21.00;91.20;;;;;;5035080;28;19928;-75
2022/06/24 09:23:56;;;;;;;;;;;21.00;91.40;;;;;;5036213;28;20247;-76
2022/06/24 09:26:30;;;;;;;;;;;21.00;91.30;;;;;;5034940;28;20255;-76
2022/06/24 09:28:58;;;;;;;;;;;21.10;91.20;;;;;;5018783;28;19925;-76
2022/06/24 09:31:27;;;;;;;;;;;21.30;90.60;;;;;;5036298;28;19921;-76
2022/06/24 09:33:55;;;;;;;;;;;21.20;90.90;;;;;;5035083;28;19921;-76
2022/06/24 09:36:24;;;;;;;;;;;21.20;90.70;;;;;;5018853;28;20259;-76
2022/06/24 09:38:52;;;;;;;;;;;21.20;90.90;;;;;;5035664;28;19921;-76
2022/06/24 09:41:20;;;;;;;;;;;21.40;90.90;;;;;;5034695;28;19921;-75
2022/06/24 09:43:47;;;;;;;;;;;21.70;90.50;;;;;;5035793;28;19921;-76
2022/06/24 09:46:22;;;;;;;;;;;21.70;90.00;;;;;;5033737;28;20359;-76
2022/06/24 09:48:57;;;;;;;;;;;22.20;88.40;;;;;;5018783;28;19921;-76
2022/06/24 09:51:27;;;;;;;;;;;22.50;87.50;;;;;;5020022;28;19921;-76
2022/06/24 09:53:55;;;;;;;;;;;25.60;88.70;;;;;;5034954;28;19928;-75
2022/06/24 09:56:23;;;;;;;;;;;22.80;86.40;;;;;;5001772;28;19944;-75
2022/06/24 10:01:38;;;;;;;;;;;22.90;85.20;;;;;;5034371;28;19921;-75
2022/06/24 10:04:08;;;;;;;;;;;22.90;84.20;;;;;;5035607;28;19921;-76
2022/06/24 10:06:36;;;;;;;;;;;22.90;85.90;;;;;;5034254;28;19921;-75
2022/06/24 10:09:04;;;;;;;;;;;23.00;84.30;;;;;;5002131;28;20375;-75
2022/06/24 10:11:37;;;;;;;;;;;23.00;85.00;;;;;;5035536;28;19921;-75
2022/06/24 10:14:08;;;;;;;;;;;23.20;84.50;;;;;;5035979;28;19925;-76
2022/06/24 10:16:42;;;;;;;;;;;23.20;84.00;;;;;;5034361;28;19932;-76
2022/06/24 10:19:10;;;;;;;;;;;23.20;84.60;;;;;;5034469;28;19947;-73
2022/06/24 10:21:48;;;;;;;;;;;23.30;83.40;;;;;;5033797;28;19931;-73
2022/06/24 10:24:16;;;;;;;;;;;23.30;83.60;;;;;;5017561;28;19921;-74
2022/06/24 10:26:47;;;;;;;;;;;23.30;82.80;;;;;;5015979;28;19928;-74
2022/06/24 10:29:14;;;;;;;;;;;23.40;83.40;;;;;;5034848;28;19921;-73
2022/06/24 10:31:42;;;;;;;;;;;23.40;82.50;;;;;;5017442;28;19940;-73
2022/06/24 10:34:10;;;;;;;;;;;23.50;83.30;;;;;;5033326;28;19921;-72
2022/06/24 10:36:38;;;;;;;;;;;23.50;82.80;;;;;;5034892;28;19921;-73
2022/06/24 10:39:16;;;;;;;;;;;23.50;83.00;;;;;;5017368;28;19921;-78
2022/06/24 10:41:44;;;;;;;;;;;23.40;82.50;;;;;;5033598;28;19925;-75
2022/06/24 10:44:24;;;;;;;;;;;23.30;83.20;;;;;;5034712;28;19921;-75
2022/06/24 10:47:14;;;;;;;;;;;23.30;83.40;;;;;;5033626;28;19932;-75
2022/06/24 10:50:04;;;;;;;;;;;23.30;84.20;;;;;;5017559;28;19925;-75
2022/06/24 10:52:35;;;;;;;;;;;22.80;83.30;;;;;;5017412;28;20263;-76
2022/06/24 10:55:20;;;;;;;;;;;23.00;83.90;;;;;;5033619;28;19924;-74
2022/06/24 10:57:49;;;;;;;;;;;22.70;84.70;;;;;;5017014;28;20283;-74
2022/06/24 11:00:20;;;;;;;;;;;22.50;85.80;;;;;;5033511;28;20311;-76
2022/06/24 11:02:55;;;;;;;;;;;22.50;85.90;;;;;;5035113;28;19928;-74
2022/06/24 11:05:24;;;;;;;;;;;22.60;86.30;;;;;;5035058;28;19921;-75
2022/06/24 11:07:51;;;;;;;;;;;21.50;84.80;;;;;;5016389;28;19921;-75
2022/06/24 11:10:20;;;;;;;;;;;23.00;84.90;;;;;;5017427;28;19944;-75
2022/06/24 11:12:49;;;;;;;;;;;22.70;84.50;;;;;;5027607;28;19921;-75
2022/06/24 11:15:16;;;;;;;;;;;22.70;85.00;;;;;;5054213;28;19991;-75
2022/06/24 11:17:44;;;;;;;;;;;22.60;85.30;;;;;;5054850;28;19921;-75
2022/06/24 11:20:12;;;;;;;;;;;22.60;85.90;;;;;;5053818;28;19928;-75
2022/06/24 11:22:46;;;;;;;;;;;22.60;85.80;;;;;;5053687;28;19936;-75
2022/06/24 11:25:14;;;;;;;;;;;22.50;85.20;;;;;;5055092;28;20327;-76
2022/06/24 11:27:47;;;;;;;;;;;22.50;85.80;;;;;;5053584;28;19921;-75
2022/06/24 11:30:14;;;;;;;;;;;22.40;85.80;;;;;;5054545;28;19987;-75
2022/06/24 11:32:56;;;;;;;;;;;22.50;87.30;;;;;;5054440;28;20303;-75
2022/06/24 11:35:24;;;;;;;;;;;22.50;86.40;;;;;;5054345;28;19925;-75
2022/06/24 11:37:56;;;;;;;;;;;22.50;86.10;;;;;;5057174;28;19927;-76
2022/06/24 11:40:33;;;;;;;;;;;22.50;85.30;;;;;;5056343;28;20351;-75
2022/06/24 11:43:09;;;;;;;;;;;22.60;85.80;;;;;;5058027;28;20367;-75
2022/06/24 11:45:38;;;;;;;;;;;22.90;84.50;;;;;;5057739;28;19920;-75
2022/06/24 11:48:06;;;;;;;;;;;22.70;86.10;;;;;;5056890;28;19939;-75
2022/06/24 11:50:33;;;;;;;;;;;22.90;85.60;;;;;;5058047;28;19920;-75
2022/06/24 11:53:02;;;;;;;;;;;23.20;84.70;;;;;;5057001;28;19928;-75
2022/06/24 11:55:37;;;;;;;;;;;23.40;83.20;;;;;;5056004;28;19931;-75
2022/06/24 11:58:06;;;;;;;;;;;23.50;82.70;;;;;;5057350;28;19921;-73
2022/06/24 12:00:36;;;;;;;;;;;23.70;81.40;;;;;;5056270;28;19928;-73
2022/06/24 12:03:04;;;;;;;;;;;23.70;83.60;;;;;;5057358;28;19924;-72
2022/06/24 12:05:32;;;;;;;;;;;23.70;81.60;;;;;;5057306;28;19921;-72
2022/06/24 12:08:00;;;;;;;;;;;23.70;81.90;;;;;;5056196;28;20014;-74
2022/06/24 12:10:28;;;;;;;;;;;23.70;80.40;;;;;;5056927;28;20351;-74
2022/06/24 12:13:01;;;;;;;;;;;23.70;81.20;;;;;;5049268;28;19921;-76
2022/06/24 12:15:31;;;;;;;;;;;23.80;82.10;;;;;;5037213;28;19928;-73
2022/06/24 12:17:59;;;;;;;;;;;24.00;80.40;;;;;;5037234;28;19928;-71
2022/06/24 12:20:28;;;;;;;;;;;24.10;79.90;;;;;;5036023;28;19921;-72
2022/06/24 12:23:14;;;;;;;;;;;24.10;79.80;;;;;;5037043;28;20267;-71
2022/06/24 12:25:42;;;;;;;;;;;24.00;79.80;;;;;;5019422;28;19928;-70
2022/06/24 12:28:15;;;;;;;;;;;23.80;79.20;;;;;;5035784;28;20286;-72
2022/06/24 12:30:54;;;;;;;;;;;23.70;80.00;;;;;;5036903;28;19939;-73
2022/06/24 12:33:22;;;;;;;;;;;23.70;80.00;;;;;;5035656;28;19928;-72
2022/06/24 12:36:01;;;;;;;;;;;24.00;80.00;;;;;;5036227;28;20283;-74
2022/06/24 12:38:28;;;;;;;;;;;24.00;79.50;;;;;;5037561;28;19928;-74
2022/06/24 12:41:09;;;;;;;;;;;24.10;81.20;;;;;;5036310;28;19928;-75
2022/06/24 12:43:50;;;;;;;;;;;24.10;80.10;;;;;;5036849;28;19928;-74
2022/06/24 12:46:18;;;;;;;;;;;24.00;81.30;;;;;;5036052;28;19925;-74
2022/06/24 12:51:38;;;;;;;;;;;24.20;81.00;;;;;;5037318;28;19928;-74
2022/06/24 12:54:05;;;;;;;;;;;24.10;80.20;;;;;;5018904;28;19944;-74
2022/06/24 12:56:34;;;;;;;;;;;24.10;78.20;;;;;;5020037;28;19921;-74
2022/06/24 12:59:02;;;;;;;;;;;24.10;79.00;;;;;;5019268;28;19921;-74
2022/06/24 13:01:31;;;;;;;;;;;24.00;78.00;;;;;;5036021;28;19936;-74
2022/06/24 13:03:59;;;;;;;;;;;24.00;78.80;;;;;;5036521;28;19921;-74
2022/06/24 13:06:26;;;;;;;;;;;24.00;79.80;;;;;;5035777;28;19936;-74
2022/06/24 13:08:54;;;;;;;;;;;24.00;77.70;;;;;;5036325;28;19928;-74
2022/06/24 13:11:21;;;;;;;;;;;23.90;78.30;;;;;;5036254;28;19928;-75
2022/06/24 13:13:49;;;;;;;;;;;23.80;79.10;;;;;;5035453;28;19928;-74
2022/06/24 13:16:16;;;;;;;;;;;23.70;78.90;;;;;;5035894;28;19921;-73
2022/06/24 13:18:44;;;;;;;;;;;23.70;79.70;;;;;;5036058;28;19944;-72
2022/06/24 13:21:11;;;;;;;;;;;23.70;79.30;;;;;;5035181;28;19921;-72
2022/06/24 13:23:38;;;;;;;;;;;23.70;79.20;;;;;;5036242;28;20271;-73
2022/06/24 13:26:06;;;;;;;;;;;23.80;79.60;;;;;;5035990;28;19928;-73
2022/06/24 13:28:33;;;;;;;;;;;24.00;79.20;;;;;;5034819;28;19921;-73
2022/06/24 13:31:02;;;;;;;;;;;24.20;78.30;;;;;;5035554;28;20276;-73
2022/06/24 13:33:29;;;;;;;;;;;24.20;77.90;;;;;;5034854;28;20287;-72
2022/06/24 13:35:57;;;;;;;;;;;24.20;78.30;;;;;;5018622;28;19921;-73
2022/06/24 13:38:24;;;;;;;;;;;24.10;78.40;;;;;;5018490;28;19944;-72
2022/06/24 13:40:51;;;;;;;;;;;24.20;78.00;;;;;;5034803;28;19921;-73
2022/06/24 13:43:22;;;;;;;;;;;24.20;77.70;;;;;;5035982;28;19921;-73
2022/06/24 13:45:50;;;;;;;;;;;24.40;78.20;;;;;;5018110;28;19931;-73
2022/06/24 13:48:17;;;;;;;;;;;24.40;78.00;;;;;;5034663;28;19921;-73
2022/06/24 13:50:45;;;;;;;;;;;24.40;77.60;;;;;;5035479;28;19921;-73
2022/06/24 13:53:13;;;;;;;;;;;24.40;77.70;;;;;;5034569;28;19928;-73
2022/06/24 13:55:40;;;;;;;;;;;24.40;77.60;;;;;;5016572;28;20287;-73
2022/06/24 13:58:08;;;;;;;;;;;24.20;77.90;;;;;;5024229;28;19921;-73
2022/06/24 14:00:35;;;;;;;;;;;23.80;78.30;;;;;;5018716;28;19921;-74
2022/06/24 14:03:03;;;;;;;;;;;23.50;79.20;;;;;;5017208;28;20125;-73
2022/06/24 14:05:31;;;;;;;;;;;23.10;80.50;;;;;;5035123;28;19931;-74
2022/06/24 14:07:58;;;;;;;;;;;22.80;81.10;;;;;;5033963;28;19928;-73
2022/06/24 14:10:26;;;;;;;;;;;22.50;82.10;;;;;;5035335;28;19948;-72
2022/06/24 14:12:55;;;;;;;;;;;22.50;82.50;;;;;;5032192;28;19928;-73
2022/06/24 14:15:23;;;;;;;;;;;22.70;83.00;;;;;;5014786;28;19922;-72
2022/06/24 14:17:51;;;;;;;;;;;22.90;82.60;;;;;;5014501;28;19925;-73
2022/06/24 14:20:19;;;;;;;;;;;23.30;82.10;;;;;;5014440;28;19929;-73
2022/06/24 14:25:34;;;;;;;;;;;23.90;80.70;;;;;;5015851;28;19921;-73
2022/06/24 14:28:01;;;;;;;;;;;24.00;81.10;;;;;;5013710;28;19928;-73
2022/06/24 14:30:31;;;;;;;;;;;24.40;80.50;;;;;;5015487;28;19928;-73
2022/06/24 14:32:59;;;;;;;;;;;24.50;79.10;;;;;;5014836;28;19929;-73
2022/06/24 14:35:26;;;;;;;;;;;24.40;78.30;;;;;;5015629;28;20368;-73
2022/06/24 14:40:40;;;;;;;;;;;24.30;80.50;;;;;;5014317;28;20356;-73
2022/06/24 14:43:19;;;;;;;;;;;24.00;79.60;;;;;;4999608;28;19929;-73
2022/06/24 14:45:48;;;;;;;;;;;24.40;79.50;;;;;;4998151;28;19944;-73
2022/06/24 14:48:21;;;;;;;;;;;24.70;78.30;;;;;;4997535;28;19939;-73
2022/06/24 14:51:00;;;;;;;;;;;24.80;78.60;;;;;;5015798;28;20244;-73